Terminal Aerodrome Forecast
Issued by NWS

Home | Current Version | Previous Version | Text Only | Print | Product List | Glossary On
Versions: 1 2 3 4 5 6 7 8 9 10 11 12 13 14 15 16 17 18 19 20 21 22 23 24 25 26 27 28
000
FTUS41 KPBZ 231100
TAFAGC
TAF
KAGC 231120Z 2312/2412 00000KT 2SM BR BKN012 BKN090
      TEMPO 2312/2314 1/2SM FG BKN005
     FM231400 06005KT P6SM BKN020
     FM231700 05005KT P6SM BKN040
     FM240400 07004KT 4SM BR OVC010=

USA.gov is the U.S. government's official web portal to all federal, state and local government web resources and services.